createdAt,value
2023-03-17T07:01:48.807Z,2.64
2023-03-17T07:06:51.643Z,2.91
2023-03-17T07:11:53.690Z,3.12
2023-03-17T07:16:55.762Z,3.51
2023-03-17T07:21:57.816Z,3.72
2023-03-17T07:27:00.290Z,4.05
2023-03-17T07:32:02.987Z,4.31
2023-03-17T07:37:07.060Z,4.38
2023-03-17T07:42:12.140Z,4.65
2023-03-17T07:47:14.800Z,4.93
2023-03-17T07:52:17.100Z,5.13
2023-03-17T07:57:19.224Z,5.28
2023-03-17T08:02:22.189Z,5.58
2023-03-17T08:07:24.481Z,5.91
2023-03-17T08:12:26.576Z,5.85
2023-03-17T08:17:28.666Z,6.08
2023-03-17T08:22:30.797Z,6.45
2023-03-17T08:27:33.989Z,6.92
2023-03-17T08:32:36.937Z,7.06
2023-03-17T08:37:39.057Z,7.66
2023-03-17T08:42:41.198Z,7.56
2023-03-17T08:47:43.292Z,7.85
2023-03-17T08:52:46.182Z,8.20
2023-03-17T08:57:48.729Z,8.51
2023-03-17T09:02:50.880Z,8.55
2023-03-17T09:07:53.618Z,8.97
2023-03-17T09:13:02.829Z,8.95
2023-03-17T09:18:05.803Z,9.15
2023-03-17T09:23:09.973Z,9.49
2023-03-17T09:28:12.964Z,9.57
2023-03-17T09:33:15.784Z,10.08
2023-03-17T09:38:17.864Z,10.01
2023-03-17T09:43:40.209Z,10.21
2023-03-17T09:49:01.890Z,10.14
2023-03-17T09:54:11.778Z,10.82
2023-03-17T09:59:34.234Z,10.14
2023-03-17T10:04:37.195Z,11.20
2023-03-17T10:09:47.377Z,10.52
2023-03-17T10:15:06.783Z,12.41
2023-03-17T10:20:16.001Z,13.64
2023-03-17T10:25:25.897Z,13.25
2023-03-17T10:30:33.583Z,13.53
2023-03-17T10:35:39.491Z,13.69
2023-03-17T10:40:45.353Z,14.40
2023-03-17T10:45:58.799Z,14.99
2023-03-17T10:51:05.859Z,15.68
2023-03-17T10:56:11.552Z,16.62
2023-03-17T11:01:36.899Z,16.42
2023-03-17T11:06:43.829Z,17.30
2023-03-17T11:11:48.518Z,17.86
2023-03-17T11:17:01.017Z,17.36
2023-03-17T11:22:31.027Z,18.43
2023-03-17T11:27:41.169Z,16.73
2023-03-17T11:32:56.494Z,18.12
2023-03-17T11:38:17.120Z,18.39
2023-03-17T11:43:37.370Z,18.79
2023-03-17T11:48:55.560Z,18.24
2023-03-17T11:54:34.956Z,18.94
2023-03-17T11:59:53.065Z,17.69
2023-03-17T12:05:01.261Z,17.37
2023-03-17T12:10:22.556Z,16.94
2023-03-17T12:15:39.908Z,17.02
2023-03-17T12:20:48.083Z,17.44
2023-03-17T12:25:59.825Z,18.00
2023-03-17T12:31:09.935Z,17.91
2023-03-17T12:36:15.513Z,17.06
2023-03-17T12:41:33.531Z,17.21
2023-03-17T12:46:47.515Z,16.59
2023-03-17T12:52:27.510Z,17.21
2023-03-17T12:57:38.609Z,18.45
2023-03-17T13:02:41.332Z,20.18
2023-03-17T13:07:56.296Z,23.35
2023-03-17T13:13:08.896Z,23.57
2023-03-17T13:18:13.912Z,26.26
2023-03-17T13:23:19.255Z,26.90
2023-03-17T13:28:41.977Z,24.73
2023-03-17T13:33:49.289Z,26.97
2023-03-17T13:39:24.952Z,28.26
2023-03-17T13:44:51.368Z,26.44
2023-03-17T13:50:00.747Z,28.85
2023-03-17T13:55:23.738Z,30.85
2023-03-17T14:00:27.832Z,27.84
2023-03-17T14:05:34.873Z,31.70
2023-03-17T14:10:37.316Z,32.27
2023-03-17T14:16:17.064Z,31.50
2023-03-17T14:21:25.223Z,30.84
2023-03-17T14:26:30.911Z,27.07
2023-03-17T14:31:33.358Z,27.85
2023-03-17T14:36:35.466Z,28.98
2023-03-17T14:41:37.552Z,31.58
2023-03-17T14:46:41.113Z,29.70
2023-03-17T14:51:43.530Z,26.69
2023-03-17T14:57:07.613Z,25.85
2023-03-17T15:02:19.240Z,24.95
2023-03-17T15:07:37.057Z,26.46
2023-03-17T15:12:39.227Z,25.57
2023-03-17T15:17:41.675Z,28.30
2023-03-17T15:22:48.547Z,21.98
2023-03-17T15:27:51.765Z,21.77
2023-03-17T15:33:01.950Z,21.22
2023-03-17T15:38:04.415Z,20.61
2023-03-17T15:43:06.846Z,18.76
2023-03-17T15:48:20.202Z,16.70
2023-03-17T15:53:22.692Z,16.54
2023-03-17T15:58:26.010Z,15.42
2023-03-17T16:03:31.395Z,13.89
2023-03-17T16:08:33.916Z,13.46
2023-03-17T16:13:41.905Z,13.30
2023-03-17T16:18:46.993Z,12.97
2023-03-17T16:23:49.684Z,12.16
2023-03-17T16:28:51.878Z,11.86
2023-03-17T16:33:54.589Z,11.45
2023-03-17T16:38:56.749Z,11.18
2023-03-17T16:44:03.327Z,10.86
2023-03-17T16:49:06.360Z,10.43
2023-03-17T16:54:09.265Z,10.40
2023-03-17T16:59:21.589Z,10.16
2023-03-17T17:04:26.495Z,9.97
2023-03-17T17:09:28.562Z,9.84
2023-03-17T17:14:30.640Z,9.77
2023-03-17T17:19:32.737Z,9.58
2023-03-17T17:24:34.870Z,9.36
2023-03-17T17:29:36.996Z,9.32
2023-03-17T17:34:39.134Z,9.22
2023-03-17T17:39:41.533Z,9.00
2023-03-17T17:44:44.250Z,8.73
2023-03-17T17:49:46.329Z,8.76
2023-03-17T17:54:48.411Z,8.67
2023-03-17T17:59:50.646Z,8.51
2023-03-17T18:04:53.587Z,8.38
2023-03-17T18:09:55.681Z,8.21
2023-03-17T18:14:57.750Z,8.18
2023-03-17T18:19:59.792Z,8.16
2023-03-17T18:25:01.996Z,7.91
2023-03-17T18:30:06.575Z,7.86
2023-03-17T18:35:15.185Z,7.84
2023-03-17T18:40:19.177Z,7.81
2023-03-17T18:45:21.553Z,7.73
2023-03-17T18:50:23.851Z,7.50
2023-03-17T18:55:26.239Z,7.51
2023-03-17T19:00:28.405Z,7.39
2023-03-17T19:05:30.879Z,7.43
2023-03-17T19:10:33.765Z,7.32
2023-03-17T19:15:36.096Z,7.26
2023-03-17T19:20:38.262Z,7.32
2023-03-17T19:25:40.327Z,7.19
2023-03-17T19:30:44.939Z,7.03
2023-03-17T19:35:56.919Z,6.93
2023-03-17T19:40:59.199Z,6.74
2023-03-17T19:46:02.233Z,6.68
2023-03-17T19:51:04.718Z,6.55
2023-03-17T19:56:07.472Z,6.50
2023-03-17T20:01:09.642Z,6.31
2023-03-17T20:06:13.112Z,6.33
2023-03-17T20:11:15.215Z,6.10
2023-03-17T20:16:17.452Z,6.04
2023-03-17T20:21:19.546Z,6.03
2023-03-17T20:26:21.759Z,5.76
2023-03-17T20:31:23.945Z,5.73
2023-03-17T20:36:27.085Z,5.55
2023-03-17T20:41:29.547Z,5.47
2023-03-17T20:46:32.163Z,5.40
